sensor_id;sensor_type;location;lat;lon;timestamp;P1;durP1;ratioP1;P2;durP2;ratioP2
13388;SDS011;6764;53.250;10.410;2024-03-02T00:02:24;31.83;;;25.65;;
13388;SDS011;6764;53.250;10.410;2024-03-02T00:04:50;33.97;;;25.67;;
13388;SDS011;6764;53.250;10.410;2024-03-02T00:07:16;32.95;;;25.90;;
13388;SDS011;6764;53.250;10.410;2024-03-02T00:09:43;36.92;;;26.02;;
13388;SDS011;6764;53.250;10.410;2024-03-02T00:12:10;32.25;;;26.48;;
13388;SDS011;6764;53.250;10.410;2024-03-02T00:14:39;31.40;;;26.73;;
13388;SDS011;6764;53.250;10.410;2024-03-02T00:17:05;32.33;;;26.17;;
13388;SDS011;6764;53.250;10.410;2024-03-02T00:19:38;32.22;;;26.33;;
13388;SDS011;6764;53.250;10.410;2024-03-02T00:22:04;33.17;;;27.02;;
13388;SDS011;6764;53.250;10.410;2024-03-02T00:24:31;31.83;;;26.60;;
13388;SDS011;6764;53.250;10.410;2024-03-02T00:27:00;32.33;;;26.65;;
13388;SDS011;6764;53.250;10.410;2024-03-02T00:29:28;36.30;;;27.17;;
13388;SDS011;6764;53.250;10.410;2024-03-02T00:31:54;32.63;;;26.13;;
13388;SDS011;6764;53.250;10.410;2024-03-02T00:34:20;35.40;;;28.48;;
13388;SDS011;6764;53.250;10.410;2024-03-02T00:36:47;33.45;;;26.77;;
13388;SDS011;6764;53.250;10.410;2024-03-02T00:39:14;32.90;;;26.55;;
13388;SDS011;6764;53.250;10.410;2024-03-02T00:41:42;32.90;;;26.77;;
13388;SDS011;6764;53.250;10.410;2024-03-02T00:44:07;33.78;;;26.77;;
13388;SDS011;6764;53.250;10.410;2024-03-02T00:46:40;33.58;;;27.13;;
13388;SDS011;6764;53.250;10.410;2024-03-02T00:51:48;34.92;;;27.58;;
13388;SDS011;6764;53.250;10.410;2024-03-02T00:54:15;34.38;;;27.38;;
13388;SDS011;6764;53.250;10.410;2024-03-02T00:56:49;33.42;;;26.70;;
13388;SDS011;6764;53.250;10.410;2024-03-02T00:59:15;33.87;;;26.83;;
13388;SDS011;6764;53.250;10.410;2024-03-02T01:01:41;34.37;;;27.40;;
13388;SDS011;6764;53.250;10.410;2024-03-02T01:04:07;30.63;;;25.70;;
13388;SDS011;6764;53.250;10.410;2024-03-02T01:06:34;34.87;;;26.90;;
13388;SDS011;6764;53.250;10.410;2024-03-02T01:09:02;34.13;;;26.73;;
13388;SDS011;6764;53.250;10.410;2024-03-02T01:11:29;34.28;;;27.02;;
13388;SDS011;6764;53.250;10.410;2024-03-02T01:13:55;32.38;;;27.10;;
13388;SDS011;6764;53.250;10.410;2024-03-02T01:16:20;31.33;;;26.15;;
13388;SDS011;6764;53.250;10.410;2024-03-02T01:18:46;35.60;;;27.93;;
13388;SDS011;6764;53.250;10.410;2024-03-02T01:21:12;33.95;;;27.25;;
13388;SDS011;6764;53.250;10.410;2024-03-02T01:23:37;33.65;;;27.92;;
13388;SDS011;6764;53.250;10.410;2024-03-02T01:26:03;34.63;;;27.83;;
13388;SDS011;6764;53.250;10.410;2024-03-02T01:28:29;34.20;;;27.07;;
13388;SDS011;6764;53.250;10.410;2024-03-02T01:30:54;34.45;;;27.33;;
13388;SDS011;6764;53.250;10.410;2024-03-02T01:33:20;33.42;;;26.65;;
13388;SDS011;6764;53.250;10.410;2024-03-02T01:35:46;33.28;;;27.10;;
13388;SDS011;6764;53.250;10.410;2024-03-02T01:38:12;34.78;;;27.05;;
13388;SDS011;6764;53.250;10.410;2024-03-02T01:40:38;33.30;;;26.52;;
13388;SDS011;6764;53.250;10.410;2024-03-02T01:43:04;32.90;;;26.67;;
13388;SDS011;6764;53.250;10.410;2024-03-02T01:45:31;33.97;;;26.95;;
13388;SDS011;6764;53.250;10.410;2024-03-02T01:47:57;33.53;;;26.85;;
13388;SDS011;6764;53.250;10.410;2024-03-02T01:50:29;32.30;;;25.70;;
13388;SDS011;6764;53.250;10.410;2024-03-02T01:52:57;33.70;;;26.77;;
13388;SDS011;6764;53.250;10.410;2024-03-02T01:55:23;31.77;;;26.45;;
13388;SDS011;6764;53.250;10.410;2024-03-02T01:57:49;34.00;;;27.27;;
13388;SDS011;6764;53.250;10.410;2024-03-02T02:00:19;30.73;;;25.08;;
13388;SDS011;6764;53.250;10.410;2024-03-02T02:02:49;34.67;;;26.88;;
13388;SDS011;6764;53.250;10.410;2024-03-02T02:05:15;34.73;;;27.30;;
13388;SDS011;6764;53.250;10.410;2024-03-02T02:07:41;34.47;;;27.17;;
13388;SDS011;6764;53.250;10.410;2024-03-02T02:10:07;30.58;;;25.77;;
13388;SDS011;6764;53.250;10.410;2024-03-02T02:12:34;31.10;;;26.05;;
13388;SDS011;6764;53.250;10.410;2024-03-02T02:15:00;35.80;;;26.60;;
13388;SDS011;6764;53.250;10.410;2024-03-02T02:17:25;32.40;;;26.50;;
13388;SDS011;6764;53.250;10.410;2024-03-02T02:19:51;31.45;;;25.63;;
13388;SDS011;6764;53.250;10.410;2024-03-02T02:22:17;30.80;;;25.63;;
13388;SDS011;6764;53.250;10.410;2024-03-02T02:24:42;31.47;;;25.50;;
13388;SDS011;6764;53.250;10.410;2024-03-02T02:27:09;32.08;;;25.73;;
13388;SDS011;6764;53.250;10.410;2024-03-02T02:29:35;30.50;;;26.00;;
13388;SDS011;6764;53.250;10.410;2024-03-02T02:32:01;31.25;;;25.85;;
13388;SDS011;6764;53.250;10.410;2024-03-02T02:34:27;31.05;;;26.33;;
13388;SDS011;6764;53.250;10.410;2024-03-02T02:36:56;33.03;;;26.17;;
13388;SDS011;6764;53.250;10.410;2024-03-02T02:39:21;32.50;;;26.17;;
13388;SDS011;6764;53.250;10.410;2024-03-02T02:41:47;34.30;;;26.93;;
13388;SDS011;6764;53.250;10.410;2024-03-02T02:44:13;32.72;;;26.08;;
13388;SDS011;6764;53.250;10.410;2024-03-02T02:46:39;34.88;;;27.65;;
13388;SDS011;6764;53.250;10.410;2024-03-02T02:49:05;30.17;;;25.77;;
13388;SDS011;6764;53.250;10.410;2024-03-02T02:51:31;32.75;;;26.55;;
13388;SDS011;6764;53.250;10.410;2024-03-02T02:53:56;31.65;;;25.77;;
13388;SDS011;6764;53.250;10.410;2024-03-02T02:56:22;33.03;;;26.47;;
13388;SDS011;6764;53.250;10.410;2024-03-02T02:58:48;32.20;;;26.23;;
13388;SDS011;6764;53.250;10.410;2024-03-02T03:01:14;33.15;;;26.45;;
13388;SDS011;6764;53.250;10.410;2024-03-02T03:03:42;31.60;;;26.45;;
13388;SDS011;6764;53.250;10.410;2024-03-02T03:06:11;31.23;;;26.05;;
13388;SDS011;6764;53.250;10.410;2024-03-02T03:08:37;30.23;;;25.55;;
13388;SDS011;6764;53.250;10.410;2024-03-02T03:11:03;32.95;;;25.63;;
13388;SDS011;6764;53.250;10.410;2024-03-02T03:13:30;32.72;;;26.42;;
13388;SDS011;6764;53.250;10.410;2024-03-02T03:15:56;31.38;;;25.45;;
13388;SDS011;6764;53.250;10.410;2024-03-02T03:18:22;29.38;;;24.83;;
13388;SDS011;6764;53.250;10.410;2024-03-02T03:20:47;30.63;;;25.60;;
13388;SDS011;6764;53.250;10.410;2024-03-02T03:23:13;28.70;;;25.13;;
13388;SDS011;6764;53.250;10.410;2024-03-02T03:25:41;29.92;;;24.92;;
13388;SDS011;6764;53.250;10.410;2024-03-02T03:28:10;30.63;;;25.20;;
13388;SDS011;6764;53.250;10.410;2024-03-02T03:30:36;30.13;;;25.70;;
13388;SDS011;6764;53.250;10.410;2024-03-02T03:33:03;30.33;;;25.25;;
13388;SDS011;6764;53.250;10.410;2024-03-02T03:35:31;30.33;;;25.30;;
13388;SDS011;6764;53.250;10.410;2024-03-02T03:37:57;32.50;;;26.05;;
13388;SDS011;6764;53.250;10.410;2024-03-02T03:40:22;30.63;;;24.65;;
13388;SDS011;6764;53.250;10.410;2024-03-02T03:42:48;30.20;;;24.83;;
13388;SDS011;6764;53.250;10.410;2024-03-02T03:45:15;30.95;;;25.15;;
13388;SDS011;6764;53.250;10.410;2024-03-02T03:47:41;30.52;;;25.00;;
13388;SDS011;6764;53.250;10.410;2024-03-02T03:50:06;30.13;;;24.27;;
13388;SDS011;6764;53.250;10.410;2024-03-02T03:52:33;29.97;;;24.37;;
13388;SDS011;6764;53.250;10.410;2024-03-02T03:54:58;29.23;;;24.30;;
13388;SDS011;6764;53.250;10.410;2024-03-02T03:57:25;28.73;;;23.83;;
13388;SDS011;6764;53.250;10.410;2024-03-02T03:59:51;28.95;;;24.00;;
13388;SDS011;6764;53.250;10.410;2024-03-02T04:02:17;30.92;;;24.33;;
13388;SDS011;6764;53.250;10.410;2024-03-02T04:04:42;32.30;;;24.50;;
13388;SDS011;6764;53.250;10.410;2024-03-02T04:07:08;28.07;;;23.40;;
13388;SDS011;6764;53.250;10.410;2024-03-02T04:09:34;29.83;;;24.10;;
13388;SDS011;6764;53.250;10.410;2024-03-02T04:11:59;28.80;;;24.48;;
13388;SDS011;6764;53.250;10.410;2024-03-02T04:14:25;29.57;;;24.23;;
13388;SDS011;6764;53.250;10.410;2024-03-02T04:16:51;28.67;;;23.43;;
13388;SDS011;6764;53.250;10.410;2024-03-02T04:19:16;26.77;;;22.98;;
13388;SDS011;6764;53.250;10.410;2024-03-02T04:21:42;28.70;;;23.17;;
13388;SDS011;6764;53.250;10.410;2024-03-02T04:24:07;28.42;;;23.15;;
13388;SDS011;6764;53.250;10.410;2024-03-02T04:26:33;28.90;;;24.50;;
13388;SDS011;6764;53.250;10.410;2024-03-02T04:28:59;29.20;;;24.27;;
13388;SDS011;6764;53.250;10.410;2024-03-02T04:31:24;29.40;;;23.65;;
13388;SDS011;6764;53.250;10.410;2024-03-02T04:33:50;29.57;;;23.07;;
13388;SDS011;6764;53.250;10.410;2024-03-02T04:36:15;27.17;;;22.70;;
13388;SDS011;6764;53.250;10.410;2024-03-02T04:38:41;28.77;;;23.67;;
13388;SDS011;6764;53.250;10.410;2024-03-02T04:41:07;29.00;;;23.47;;
13388;SDS011;6764;53.250;10.410;2024-03-02T04:43:32;27.98;;;23.23;;
13388;SDS011;6764;53.250;10.410;2024-03-02T04:45:59;27.85;;;23.50;;
13388;SDS011;6764;53.250;10.410;2024-03-02T04:48:25;26.10;;;22.60;;
13388;SDS011;6764;53.250;10.410;2024-03-02T04:50:50;28.53;;;23.33;;
13388;SDS011;6764;53.250;10.410;2024-03-02T04:53:16;31.05;;;22.98;;
13388;SDS011;6764;53.250;10.410;2024-03-02T04:55:42;27.08;;;23.60;;
13388;SDS011;6764;53.250;10.410;2024-03-02T04:58:07;30.03;;;24.70;;
13388;SDS011;6764;53.250;10.410;2024-03-02T05:00:34;28.33;;;23.60;;
13388;SDS011;6764;53.250;10.410;2024-03-02T05:03:00;28.63;;;23.30;;
13388;SDS011;6764;53.250;10.410;2024-03-02T05:05:26;26.67;;;21.75;;
13388;SDS011;6764;53.250;10.410;2024-03-02T05:07:51;27.40;;;22.87;;
13388;SDS011;6764;53.250;10.410;2024-03-02T05:10:17;27.10;;;22.50;;
13388;SDS011;6764;53.250;10.410;2024-03-02T05:12:43;28.90;;;23.40;;
13388;SDS011;6764;53.250;10.410;2024-03-02T05:15:09;28.08;;;22.98;;
13388;SDS011;6764;53.250;10.410;2024-03-02T05:17:35;26.75;;;21.92;;
13388;SDS011;6764;53.250;10.410;2024-03-02T05:20:08;27.05;;;22.40;;
13388;SDS011;6764;53.250;10.410;2024-03-02T05:22:34;27.87;;;22.97;;
13388;SDS011;6764;53.250;10.410;2024-03-02T05:25:01;26.00;;;21.77;;
13388;SDS011;6764;53.250;10.410;2024-03-02T05:27:27;27.08;;;22.13;;
13388;SDS011;6764;53.250;10.410;2024-03-02T05:29:53;26.00;;;21.95;;
13388;SDS011;6764;53.250;10.410;2024-03-02T05:32:18;28.65;;;23.25;;
13388;SDS011;6764;53.250;10.410;2024-03-02T05:34:44;27.77;;;23.83;;
13388;SDS011;6764;53.250;10.410;2024-03-02T05:37:09;29.00;;;24.98;;
13388;SDS011;6764;53.250;10.410;2024-03-02T05:39:35;29.67;;;25.10;;
13388;SDS011;6764;53.250;10.410;2024-03-02T05:42:01;29.03;;;23.20;;
13388;SDS011;6764;53.250;10.410;2024-03-02T05:44:26;28.92;;;23.67;;
13388;SDS011;6764;53.250;10.410;2024-03-02T05:46:52;27.73;;;23.43;;
13388;SDS011;6764;53.250;10.410;2024-03-02T05:49:17;28.63;;;23.80;;
13388;SDS011;6764;53.250;10.410;2024-03-02T05:51:43;28.63;;;23.30;;
13388;SDS011;6764;53.250;10.410;2024-03-02T05:54:11;29.13;;;23.87;;
13388;SDS011;6764;53.250;10.410;2024-03-02T05:56:37;28.83;;;23.95;;
13388;SDS011;6764;53.250;10.410;2024-03-02T05:59:03;25.07;;;22.33;;
13388;SDS011;6764;53.250;10.410;2024-03-02T06:01:46;28.30;;;23.48;;
13388;SDS011;6764;53.250;10.410;2024-03-02T06:04:13;26.63;;;22.73;;
13388;SDS011;6764;53.250;10.410;2024-03-02T06:06:39;29.17;;;24.10;;
13388;SDS011;6764;53.250;10.410;2024-03-02T06:09:06;28.52;;;23.10;;
13388;SDS011;6764;53.250;10.410;2024-03-02T06:11:37;28.83;;;24.30;;
13388;SDS011;6764;53.250;10.410;2024-03-02T06:14:04;29.48;;;24.48;;
13388;SDS011;6764;53.250;10.410;2024-03-02T06:16:31;28.67;;;23.92;;
13388;SDS011;6764;53.250;10.410;2024-03-02T06:18:57;29.67;;;24.10;;
13388;SDS011;6764;53.250;10.410;2024-03-02T06:21:26;29.97;;;23.57;;
13388;SDS011;6764;53.250;10.410;2024-03-02T06:23:52;29.75;;;24.30;;
13388;SDS011;6764;53.250;10.410;2024-03-02T06:26:18;31.00;;;24.27;;
13388;SDS011;6764;53.250;10.410;2024-03-02T06:28:45;29.98;;;24.20;;
13388;SDS011;6764;53.250;10.410;2024-03-02T06:31:11;29.98;;;24.75;;
13388;SDS011;6764;53.250;10.410;2024-03-02T06:33:37;31.40;;;24.90;;
13388;SDS011;6764;53.250;10.410;2024-03-02T06:36:03;30.85;;;25.40;;
13388;SDS011;6764;53.250;10.410;2024-03-02T06:38:29;32.20;;;25.10;;
13388;SDS011;6764;53.250;10.410;2024-03-02T06:40:57;29.90;;;24.77;;
13388;SDS011;6764;53.250;10.410;2024-03-02T06:43:22;29.43;;;25.20;;
13388;SDS011;6764;53.250;10.410;2024-03-02T06:45:51;32.03;;;26.63;;
13388;SDS011;6764;53.250;10.410;2024-03-02T06:48:18;31.45;;;25.80;;
13388;SDS011;6764;53.250;10.410;2024-03-02T06:50:48;30.70;;;25.27;;
13388;SDS011;6764;53.250;10.410;2024-03-02T06:53:14;31.45;;;25.63;;
13388;SDS011;6764;53.250;10.410;2024-03-02T06:55:42;31.07;;;25.50;;
13388;SDS011;6764;53.250;10.410;2024-03-02T06:58:10;32.60;;;25.67;;
13388;SDS011;6764;53.250;10.410;2024-03-02T07:00:36;31.80;;;26.55;;
13388;SDS011;6764;53.250;10.410;2024-03-02T07:03:02;31.85;;;25.90;;
13388;SDS011;6764;53.250;10.410;2024-03-02T07:05:27;31.40;;;25.48;;
13388;SDS011;6764;53.250;10.410;2024-03-02T07:07:53;30.67;;;26.07;;
13388;SDS011;6764;53.250;10.410;2024-03-02T07:10:18;32.35;;;26.40;;
13388;SDS011;6764;53.250;10.410;2024-03-02T07:12:44;32.22;;;25.70;;
13388;SDS011;6764;53.250;10.410;2024-03-02T07:15:10;32.67;;;26.50;;
13388;SDS011;6764;53.250;10.410;2024-03-02T07:17:53;31.15;;;25.85;;
13388;SDS011;6764;53.250;10.410;2024-03-02T07:20:19;28.90;;;24.55;;
13388;SDS011;6764;53.250;10.410;2024-03-02T07:22:45;31.90;;;26.33;;
13388;SDS011;6764;53.250;10.410;2024-03-02T07:25:10;35.20;;;25.17;;
13388;SDS011;6764;53.250;10.410;2024-03-02T07:27:37;30.08;;;25.40;;
13388;SDS011;6764;53.250;10.410;2024-03-02T07:30:03;28.98;;;25.00;;
13388;SDS011;6764;53.250;10.410;2024-03-02T07:32:28;28.80;;;23.88;;
13388;SDS011;6764;53.250;10.410;2024-03-02T07:34:54;28.38;;;24.02;;
13388;SDS011;6764;53.250;10.410;2024-03-02T07:37:20;29.85;;;23.88;;
13388;SDS011;6764;53.250;10.410;2024-03-02T07:39:47;27.88;;;24.08;;
13388;SDS011;6764;53.250;10.410;2024-03-02T07:42:12;30.33;;;24.48;;
13388;SDS011;6764;53.250;10.410;2024-03-02T07:44:38;30.30;;;25.20;;
13388;SDS011;6764;53.250;10.410;2024-03-02T07:47:03;29.70;;;23.63;;
13388;SDS011;6764;53.250;10.410;2024-03-02T07:49:29;30.92;;;23.80;;
13388;SDS011;6764;53.250;10.410;2024-03-02T07:51:55;26.77;;;22.77;;
13388;SDS011;6764;53.250;10.410;2024-03-02T07:54:20;29.73;;;23.67;;
13388;SDS011;6764;53.250;10.410;2024-03-02T07:56:46;30.38;;;23.35;;
13388;SDS011;6764;53.250;10.410;2024-03-02T07:59:12;28.00;;;23.65;;
13388;SDS011;6764;53.250;10.410;2024-03-02T08:01:38;27.98;;;23.35;;
13388;SDS011;6764;53.250;10.410;2024-03-02T08:04:04;27.63;;;22.95;;
13388;SDS011;6764;53.250;10.410;2024-03-02T08:06:29;26.90;;;23.43;;
13388;SDS011;6764;53.250;10.410;2024-03-02T08:08:58;26.25;;;22.08;;
13388;SDS011;6764;53.250;10.410;2024-03-02T08:11:25;26.55;;;22.27;;
13388;SDS011;6764;53.250;10.410;2024-03-02T08:13:56;26.23;;;23.20;;
13388;SDS011;6764;53.250;10.410;2024-03-02T08:16:22;26.20;;;22.15;;
13388;SDS011;6764;53.250;10.410;2024-03-02T08:18:48;27.38;;;22.63;;
13388;SDS011;6764;53.250;10.410;2024-03-02T08:21:15;27.35;;;21.95;;
13388;SDS011;6764;53.250;10.410;2024-03-02T08:23:40;24.15;;;20.98;;
13388;SDS011;6764;53.250;10.410;2024-03-02T08:26:07;27.52;;;21.67;;
13388;SDS011;6764;53.250;10.410;2024-03-02T08:28:33;25.77;;;21.70;;
13388;SDS011;6764;53.250;10.410;2024-03-02T08:30:59;23.38;;;20.75;;
13388;SDS011;6764;53.250;10.410;2024-03-02T08:33:25;23.48;;;19.77;;
13388;SDS011;6764;53.250;10.410;2024-03-02T08:35:50;22.10;;;19.60;;
13388;SDS011;6764;53.250;10.410;2024-03-02T08:38:16;24.13;;;19.92;;
13388;SDS011;6764;53.250;10.410;2024-03-02T08:40:42;25.48;;;20.50;;
13388;SDS011;6764;53.250;10.410;2024-03-02T08:43:08;24.95;;;20.17;;
13388;SDS011;6764;53.250;10.410;2024-03-02T08:45:34;23.77;;;19.77;;
13388;SDS011;6764;53.250;10.410;2024-03-02T08:48:00;23.70;;;19.77;;
13388;SDS011;6764;53.250;10.410;2024-03-02T08:50:25;24.10;;;20.17;;
13388;SDS011;6764;53.250;10.410;2024-03-02T08:52:51;23.77;;;19.63;;
13388;SDS011;6764;53.250;10.410;2024-03-02T08:55:17;24.08;;;19.85;;
13388;SDS011;6764;53.250;10.410;2024-03-02T08:57:42;22.13;;;18.83;;
13388;SDS011;6764;53.250;10.410;2024-03-02T09:00:08;22.30;;;19.83;;
13388;SDS011;6764;53.250;10.410;2024-03-02T09:02:34;23.65;;;19.75;;
13388;SDS011;6764;53.250;10.410;2024-03-02T09:05:00;23.48;;;18.27;;
13388;SDS011;6764;53.250;10.410;2024-03-02T09:07:26;22.95;;;18.05;;
13388;SDS011;6764;53.250;10.410;2024-03-02T09:09:52;21.00;;;17.52;;
13388;SDS011;6764;53.250;10.410;2024-03-02T09:12:18;21.98;;;18.70;;
13388;SDS011;6764;53.250;10.410;2024-03-02T09:14:44;23.40;;;18.95;;
13388;SDS011;6764;53.250;10.410;2024-03-02T09:17:10;25.05;;;19.13;;
13388;SDS011;6764;53.250;10.410;2024-03-02T09:19:37;22.23;;;19.50;;
13388;SDS011;6764;53.250;10.410;2024-03-02T09:22:03;20.20;;;17.25;;
13388;SDS011;6764;53.250;10.410;2024-03-02T09:24:30;18.42;;;16.35;;
13388;SDS011;6764;53.250;10.410;2024-03-02T09:26:56;19.10;;;16.63;;
13388;SDS011;6764;53.250;10.410;2024-03-02T09:29:22;19.85;;;16.90;;
13388;SDS011;6764;53.250;10.410;2024-03-02T09:31:50;20.80;;;18.25;;
13388;SDS011;6764;53.250;10.410;2024-03-02T09:34:16;20.45;;;16.98;;
13388;SDS011;6764;53.250;10.410;2024-03-02T09:36:42;18.02;;;15.90;;
13388;SDS011;6764;53.250;10.410;2024-03-02T09:39:08;17.67;;;15.60;;
13388;SDS011;6764;53.250;10.410;2024-03-02T09:41:35;16.65;;;14.85;;
13388;SDS011;6764;53.250;10.410;2024-03-02T09:44:02;17.13;;;14.52;;
13388;SDS011;6764;53.250;10.410;2024-03-02T09:46:28;17.88;;;14.40;;
13388;SDS011;6764;53.250;10.410;2024-03-02T09:48:53;18.35;;;14.52;;
13388;SDS011;6764;53.250;10.410;2024-03-02T09:51:19;15.17;;;13.57;;
13388;SDS011;6764;53.250;10.410;2024-03-02T09:53:45;17.60;;;14.20;;
13388;SDS011;6764;53.250;10.410;2024-03-02T09:56:11;16.35;;;14.30;;
13388;SDS011;6764;53.250;10.410;2024-03-02T09:58:38;18.00;;;15.17;;
13388;SDS011;6764;53.250;10.410;2024-03-02T10:01:07;17.42;;;14.45;;
13388;SDS011;6764;53.250;10.410;2024-03-02T10:03:35;16.05;;;14.35;;
13388;SDS011;6764;53.250;10.410;2024-03-02T10:08:50;18.50;;;15.10;;
13388;SDS011;6764;53.250;10.410;2024-03-02T10:16:40;15.80;;;13.63;;
13388;SDS011;6764;53.250;10.410;2024-03-02T10:19:40;15.85;;;12.85;;
13388;SDS011;6764;53.250;10.410;2024-03-02T10:22:05;16.00;;;13.68;;
13388;SDS011;6764;53.250;10.410;2024-03-02T10:24:39;14.60;;;13.10;;
13388;SDS011;6764;53.250;10.410;2024-03-02T10:27:17;19.52;;;15.40;;
13388;SDS011;6764;53.250;10.410;2024-03-02T10:29:47;16.23;;;13.10;;
13388;SDS011;6764;53.250;10.410;2024-03-02T10:32:14;17.35;;;13.15;;
13388;SDS011;6764;53.250;10.410;2024-03-02T10:34:40;13.68;;;12.20;;
13388;SDS011;6764;53.250;10.410;2024-03-02T10:37:10;13.35;;;11.95;;
13388;SDS011;6764;53.250;10.410;2024-03-02T10:39:37;14.00;;;12.40;;
13388;SDS011;6764;53.250;10.410;2024-03-02T10:42:07;23.83;;;21.25;;
13388;SDS011;6764;53.250;10.410;2024-03-02T10:44:32;15.52;;;13.25;;
13388;SDS011;6764;53.250;10.410;2024-03-02T10:47:00;14.57;;;12.43;;
13388;SDS011;6764;53.250;10.410;2024-03-02T10:49:27;15.20;;;13.57;;
13388;SDS011;6764;53.250;10.410;2024-03-02T10:51:55;16.95;;;14.02;;
13388;SDS011;6764;53.250;10.410;2024-03-02T10:54:21;12.83;;;11.50;;
13388;SDS011;6764;53.250;10.410;2024-03-02T10:56:51;14.20;;;12.68;;
13388;SDS011;6764;53.250;10.410;2024-03-02T10:59:28;14.35;;;12.80;;
13388;SDS011;6764;53.250;10.410;2024-03-02T11:02:03;13.05;;;11.75;;
13388;SDS011;6764;53.250;10.410;2024-03-02T11:04:30;13.60;;;12.20;;
13388;SDS011;6764;53.250;10.410;2024-03-02T11:07:02;13.35;;;11.88;;
13388;SDS011;6764;53.250;10.410;2024-03-02T11:09:29;13.45;;;11.80;;
13388;SDS011;6764;53.250;10.410;2024-03-02T11:12:02;13.15;;;11.70;;
13388;SDS011;6764;53.250;10.410;2024-03-02T11:14:29;13.90;;;12.30;;
13388;SDS011;6764;53.250;10.410;2024-03-02T11:16:58;13.63;;;11.88;;
13388;SDS011;6764;53.250;10.410;2024-03-02T11:19:26;12.88;;;11.57;;
13388;SDS011;6764;53.250;10.410;2024-03-02T11:21:52;13.65;;;12.25;;
13388;SDS011;6764;53.250;10.410;2024-03-02T11:26:53;16.67;;;12.73;;
13388;SDS011;6764;53.250;10.410;2024-03-02T11:32:06;14.65;;;12.13;;
13388;SDS011;6764;53.250;10.410;2024-03-02T11:34:39;14.23;;;12.77;;
13388;SDS011;6764;53.250;10.410;2024-03-02T11:37:10;34.50;;;27.90;;
13388;SDS011;6764;53.250;10.410;2024-03-02T11:39:37;16.27;;;13.38;;
13388;SDS011;6764;53.250;10.410;2024-03-02T11:42:05;13.93;;;12.40;;
13388;SDS011;6764;53.250;10.410;2024-03-02T11:44:33;14.38;;;12.27;;
13388;SDS011;6764;53.250;10.410;2024-03-02T11:47:00;14.05;;;12.10;;
13388;SDS011;6764;53.250;10.410;2024-03-02T11:52:21;14.65;;;11.93;;
13388;SDS011;6764;53.250;10.410;2024-03-02T11:54:48;13.77;;;11.73;;
13388;SDS011;6764;53.250;10.410;2024-03-02T11:57:16;14.30;;;12.18;;
13388;SDS011;6764;53.250;10.410;2024-03-02T11:59:43;13.63;;;12.20;;
13388;SDS011;6764;53.250;10.410;2024-03-02T12:02:16;21.07;;;18.17;;
13388;SDS011;6764;53.250;10.410;2024-03-02T12:04:45;15.50;;;12.55;;
13388;SDS011;6764;53.250;10.410;2024-03-02T12:07:18;15.30;;;13.10;;
13388;SDS011;6764;53.250;10.410;2024-03-02T12:09:45;12.65;;;11.13;;
13388;SDS011;6764;53.250;10.410;2024-03-02T12:12:11;14.63;;;12.43;;
13388;SDS011;6764;53.250;10.410;2024-03-02T12:14:39;12.95;;;11.60;;
13388;SDS011;6764;53.250;10.410;2024-03-02T12:17:05;14.35;;;12.80;;
13388;SDS011;6764;53.250;10.410;2024-03-02T12:19:32;14.57;;;12.23;;
13388;SDS011;6764;53.250;10.410;2024-03-02T12:21:58;12.40;;;11.10;;
13388;SDS011;6764;53.250;10.410;2024-03-02T12:24:26;12.80;;;11.45;;
13388;SDS011;6764;53.250;10.410;2024-03-02T12:26:53;14.57;;;11.80;;
13388;SDS011;6764;53.250;10.410;2024-03-02T12:29:19;13.90;;;12.25;;
13388;SDS011;6764;53.250;10.410;2024-03-02T12:31:49;14.57;;;11.70;;
13388;SDS011;6764;53.250;10.410;2024-03-02T12:34:15;13.13;;;11.63;;
13388;SDS011;6764;53.250;10.410;2024-03-02T12:36:42;13.70;;;11.67;;
13388;SDS011;6764;53.250;10.410;2024-03-02T12:39:09;13.50;;;11.20;;
13388;SDS011;6764;53.250;10.410;2024-03-02T12:41:37;12.65;;;10.65;;
13388;SDS011;6764;53.250;10.410;2024-03-02T12:44:03;11.73;;;10.33;;
13388;SDS011;6764;53.250;10.410;2024-03-02T12:46:29;12.38;;;10.85;;
13388;SDS011;6764;53.250;10.410;2024-03-02T12:48:56;11.80;;;10.50;;
13388;SDS011;6764;53.250;10.410;2024-03-02T12:51:21;11.50;;;10.30;;
13388;SDS011;6764;53.250;10.410;2024-03-02T12:53:54;12.57;;;10.80;;
13388;SDS011;6764;53.250;10.410;2024-03-02T12:56:20;13.07;;;11.63;;
13388;SDS011;6764;53.250;10.410;2024-03-02T12:58:46;12.93;;;11.57;;
13388;SDS011;6764;53.250;10.410;2024-03-02T13:01:14;13.60;;;11.48;;
13388;SDS011;6764;53.250;10.410;2024-03-02T13:03:40;11.90;;;10.65;;
13388;SDS011;6764;53.250;10.410;2024-03-02T13:06:06;12.25;;;10.93;;
13388;SDS011;6764;53.250;10.410;2024-03-02T13:08:33;13.75;;;11.25;;
13388;SDS011;6764;53.250;10.410;2024-03-02T13:10:59;15.10;;;12.13;;
13388;SDS011;6764;53.250;10.410;2024-03-02T13:13:25;13.67;;;11.33;;
13388;SDS011;6764;53.250;10.410;2024-03-02T13:15:54;13.60;;;11.27;;
13388;SDS011;6764;53.250;10.410;2024-03-02T13:18:21;11.88;;;10.55;;
13388;SDS011;6764;53.250;10.410;2024-03-02T13:20:47;14.40;;;12.90;;
13388;SDS011;6764;53.250;10.410;2024-03-02T13:23:12;12.25;;;10.57;;
13388;SDS011;6764;53.250;10.410;2024-03-02T13:25:39;12.43;;;11.13;;
13388;SDS011;6764;53.250;10.410;2024-03-02T13:28:04;13.60;;;11.30;;
13388;SDS011;6764;53.250;10.410;2024-03-02T13:30:31;12.35;;;11.05;;
13388;SDS011;6764;53.250;10.410;2024-03-02T13:32:57;13.45;;;11.32;;
13388;SDS011;6764;53.250;10.410;2024-03-02T13:35:23;13.10;;;11.70;;
13388;SDS011;6764;53.250;10.410;2024-03-02T13:37:48;14.80;;;12.32;;
13388;SDS011;6764;53.250;10.410;2024-03-02T13:40:15;16.92;;;14.90;;
13388;SDS011;6764;53.250;10.410;2024-03-02T13:42:45;14.40;;;12.90;;
13388;SDS011;6764;53.250;10.410;2024-03-02T13:45:11;17.60;;;12.97;;
13388;SDS011;6764;53.250;10.410;2024-03-02T13:47:40;12.10;;;10.80;;
13388;SDS011;6764;53.250;10.410;2024-03-02T13:50:06;14.37;;;11.70;;
13388;SDS011;6764;53.250;10.410;2024-03-02T13:52:32;13.68;;;10.80;;
13388;SDS011;6764;53.250;10.410;2024-03-02T13:54:58;11.77;;;10.47;;
13388;SDS011;6764;53.250;10.410;2024-03-02T13:57:23;12.20;;;10.65;;
13388;SDS011;6764;53.250;10.410;2024-03-02T13:59:49;13.02;;;11.25;;
13388;SDS011;6764;53.250;10.410;2024-03-02T14:02:16;13.13;;;10.68;;
13388;SDS011;6764;53.250;10.410;2024-03-02T14:04:42;11.60;;;10.40;;
13388;SDS011;6764;53.250;10.410;2024-03-02T14:07:07;13.10;;;9.73;;
13388;SDS011;6764;53.250;10.410;2024-03-02T14:09:33;11.20;;;10.03;;
13388;SDS011;6764;53.250;10.410;2024-03-02T14:11:59;12.13;;;10.73;;
13388;SDS011;6764;53.250;10.410;2024-03-02T14:14:28;11.77;;;10.02;;
13388;SDS011;6764;53.250;10.410;2024-03-02T14:16:54;11.15;;;9.50;;
13388;SDS011;6764;53.250;10.410;2024-03-02T14:19:21;10.63;;;9.20;;
13388;SDS011;6764;53.250;10.410;2024-03-02T14:21:47;11.75;;;8.95;;
13388;SDS011;6764;53.250;10.410;2024-03-02T14:24:13;10.50;;;9.25;;
13388;SDS011;6764;53.250;10.410;2024-03-02T14:26:38;10.82;;;9.73;;
13388;SDS011;6764;53.250;10.410;2024-03-02T14:29:04;10.63;;;9.52;;
13388;SDS011;6764;53.250;10.410;2024-03-02T14:31:30;13.50;;;10.63;;
13388;SDS011;6764;53.250;10.410;2024-03-02T14:33:56;11.02;;;9.40;;
13388;SDS011;6764;53.250;10.410;2024-03-02T14:36:23;12.50;;;10.27;;
13388;SDS011;6764;53.250;10.410;2024-03-02T14:38:48;12.13;;;10.32;;